createdAt,value
2023-02-16T00:01:28.715Z,20.92
2023-02-16T00:03:55.525Z,21.13
2023-02-16T00:06:22.248Z,21.23
2023-02-16T00:08:49.055Z,21.26
2023-02-16T00:11:34.700Z,21.43
2023-02-16T00:14:01.431Z,21.55
2023-02-16T00:16:28.199Z,21.62
2023-02-16T00:18:54.992Z,21.68
2023-02-16T00:21:21.750Z,21.75
2023-02-16T00:23:48.572Z,21.72
2023-02-16T00:26:15.414Z,21.86
2023-02-16T00:28:42.186Z,21.94
2023-02-16T00:31:09.003Z,21.22
2023-02-16T00:33:35.794Z,18.89
2023-02-16T00:36:02.535Z,17.42
2023-02-16T00:38:29.463Z,18.92
2023-02-16T00:40:56.199Z,19.90
2023-02-16T00:43:22.964Z,20.51
2023-02-16T00:45:49.762Z,20.84
2023-02-16T00:48:16.565Z,20.97
2023-02-16T00:50:43.302Z,21.15
2023-02-16T00:53:11.502Z,21.17
2023-02-16T00:55:38.254Z,21.38
2023-02-16T00:58:05.004Z,21.43
2023-02-16T01:00:31.741Z,21.51
2023-02-16T01:02:58.511Z,21.67
2023-02-16T01:05:25.242Z,21.71
2023-02-16T01:08:10.551Z,21.74
2023-02-16T01:10:55.914Z,21.88
2023-02-16T01:13:22.676Z,21.96
2023-02-16T01:15:49.529Z,21.97
2023-02-16T01:18:16.331Z,21.95
2023-02-16T01:20:43.116Z,22.08
2023-02-16T01:23:09.881Z,20.40
2023-02-16T01:25:36.639Z,18.46
2023-02-16T01:28:03.399Z,18.56
2023-02-16T01:30:30.253Z,19.89
2023-02-16T01:32:57.072Z,20.42
2023-02-16T01:35:23.816Z,20.76
2023-02-16T01:37:50.647Z,21.02
2023-02-16T01:40:17.391Z,21.30
2023-02-16T01:42:44.134Z,21.34
2023-02-16T01:45:11.016Z,21.38
2023-02-16T01:47:38.046Z,21.50
2023-02-16T01:50:04.822Z,21.49
2023-02-16T01:52:31.622Z,21.64
2023-02-16T01:54:58.401Z,21.71
2023-02-16T01:57:25.158Z,21.73
2023-02-16T01:59:51.914Z,21.77
2023-02-16T02:02:18.715Z,21.90
2023-02-16T02:05:04.237Z,22.06
2023-02-16T02:07:30.977Z,21.94
2023-02-16T02:09:57.751Z,21.52
2023-02-16T02:12:24.550Z,18.88
2023-02-16T02:14:51.571Z,17.08
2023-02-16T02:17:18.324Z,19.08
2023-02-16T02:19:45.074Z,20.05
2023-02-16T02:22:50.560Z,20.46
2023-02-16T02:25:17.345Z,20.80
2023-02-16T02:27:44.086Z,21.03
2023-02-16T02:30:10.884Z,21.07
2023-02-16T02:32:37.713Z,21.32
2023-02-16T02:35:04.530Z,21.35
2023-02-16T02:37:31.267Z,21.45
2023-02-16T02:39:58.028Z,21.46
2023-02-16T02:42:24.774Z,21.61
2023-02-16T02:44:51.519Z,21.80
2023-02-16T02:47:18.352Z,21.69
2023-02-16T02:49:45.113Z,21.80
2023-02-16T02:52:11.897Z,21.78
2023-02-16T02:54:57.680Z,21.87
2023-02-16T02:57:42.959Z,21.96
2023-02-16T03:00:28.299Z,19.84
2023-02-16T03:02:55.036Z,17.27
2023-02-16T03:05:21.780Z,18.56
2023-02-16T03:07:48.611Z,19.82
2023-02-16T03:10:34.007Z,20.36
2023-02-16T03:13:00.884Z,20.57
2023-02-16T03:15:27.652Z,20.89
2023-02-16T03:18:12.874Z,21.03
2023-02-16T03:20:58.141Z,21.15
2023-02-16T03:23:43.538Z,21.34
2023-02-16T03:26:28.913Z,21.33
2023-02-16T03:29:14.487Z,21.49
2023-02-16T03:31:41.264Z,21.51
2023-02-16T03:34:08.046Z,21.74
2023-02-16T03:36:34.802Z,21.67
2023-02-16T03:39:01.600Z,21.69
2023-02-16T03:41:28.332Z,21.83
2023-02-16T03:43:55.082Z,21.76
2023-02-16T03:46:21.815Z,21.87
2023-02-16T03:48:48.627Z,22.00
2023-02-16T03:51:15.361Z,21.95
2023-02-16T03:53:42.085Z,20.42
2023-02-16T03:56:08.818Z,17.93
2023-02-16T03:58:35.584Z,17.82
2023-02-16T04:01:02.774Z,19.57
2023-02-16T04:03:29.684Z,20.24
2023-02-16T04:05:56.438Z,20.61
2023-02-16T04:08:23.200Z,20.83
2023-02-16T04:10:49.939Z,20.99
2023-02-16T04:13:16.690Z,21.14
2023-02-16T04:15:43.463Z,21.51
2023-02-16T04:18:10.220Z,21.38
2023-02-16T04:20:37.094Z,21.48
2023-02-16T04:23:03.850Z,21.60
2023-02-16T04:25:30.601Z,21.66
2023-02-16T04:27:57.401Z,21.78
2023-02-16T04:30:24.185Z,21.82
2023-02-16T04:32:51.004Z,21.80
2023-02-16T04:35:17.880Z,21.89
2023-02-16T04:37:44.679Z,21.96
2023-02-16T04:40:13.512Z,22.08
2023-02-16T04:42:40.340Z,20.63
2023-02-16T04:45:07.079Z,18.78
2023-02-16T04:47:33.822Z,17.70
2023-02-16T04:50:00.608Z,19.82
2023-02-16T04:52:27.355Z,20.42
2023-02-16T04:54:54.091Z,20.82
2023-02-16T04:57:22.434Z,20.96
2023-02-16T04:59:49.280Z,21.06
2023-02-16T05:02:16.033Z,21.20
2023-02-16T05:04:42.800Z,21.38
2023-02-16T05:07:09.604Z,21.35
2023-02-16T05:09:36.373Z,21.45
2023-02-16T05:12:21.861Z,21.57
2023-02-16T05:14:48.667Z,21.70
2023-02-16T05:17:15.467Z,21.73
2023-02-16T05:19:42.239Z,21.81
2023-02-16T05:22:09.138Z,21.91
2023-02-16T05:24:36.121Z,21.84
2023-02-16T05:27:02.883Z,21.97
2023-02-16T05:29:29.738Z,21.63
2023-02-16T05:31:56.584Z,19.72
2023-02-16T05:34:23.436Z,17.88
2023-02-16T05:36:50.204Z,19.05
2023-02-16T05:39:16.943Z,20.06
2023-02-16T05:41:43.724Z,20.89
2023-02-16T05:44:10.465Z,20.89
2023-02-16T05:46:37.273Z,21.00
2023-02-16T05:49:04.074Z,21.23
2023-02-16T05:51:30.888Z,21.38
2023-02-16T05:53:57.647Z,21.49
2023-02-16T05:56:24.437Z,21.55
2023-02-16T05:58:51.210Z,21.62
2023-02-16T06:01:17.987Z,21.63
2023-02-16T06:03:44.803Z,21.80
2023-02-16T06:06:11.689Z,21.86
2023-02-16T06:08:38.449Z,22.00
2023-02-16T06:11:07.027Z,21.88
2023-02-16T06:13:34.293Z,22.02
2023-02-16T06:16:01.060Z,21.82
2023-02-16T06:18:27.827Z,19.22
2023-02-16T06:20:54.552Z,17.32
2023-02-16T06:23:21.286Z,18.68
2023-02-16T06:25:48.040Z,20.03
2023-02-16T06:28:14.778Z,20.63
2023-02-16T06:30:42.534Z,20.84
2023-02-16T06:33:09.531Z,21.04
2023-02-16T06:35:36.250Z,21.18
2023-02-16T06:38:02.991Z,21.40
2023-02-16T06:40:29.864Z,21.34
2023-02-16T06:42:56.647Z,21.45
2023-02-16T06:45:23.374Z,21.66
2023-02-16T06:47:50.117Z,21.66
2023-02-16T06:50:17.626Z,21.62
2023-02-16T06:52:44.460Z,21.85
2023-02-16T06:55:11.396Z,21.88
2023-02-16T06:57:38.132Z,21.88
2023-02-16T07:00:05.806Z,22.01
2023-02-16T07:02:32.572Z,21.95
2023-02-16T07:04:59.350Z,22.09
2023-02-16T07:07:26.200Z,20.03
2023-02-16T07:09:53.057Z,17.72
2023-02-16T07:12:19.855Z,18.02
2023-02-16T07:14:46.610Z,19.78
2023-02-16T07:17:13.415Z,20.40
2023-02-16T07:19:40.141Z,20.79
2023-02-16T07:22:06.869Z,20.92
2023-02-16T07:24:33.613Z,21.12
2023-02-16T07:27:00.375Z,21.26
2023-02-16T07:29:27.125Z,21.33
2023-02-16T07:31:54.526Z,21.51
2023-02-16T07:34:22.116Z,21.64
2023-02-16T07:36:49.158Z,21.59
2023-02-16T07:39:15.900Z,21.71
2023-02-16T07:41:42.695Z,21.87
2023-02-16T07:44:09.497Z,21.80
2023-02-16T07:46:36.304Z,21.96
2023-02-16T07:49:03.060Z,21.88
2023-02-16T07:51:30.526Z,22.03
2023-02-16T07:53:57.314Z,21.54
2023-02-16T07:56:24.047Z,18.62
2023-02-16T07:58:50.779Z,16.90
2023-02-16T08:01:17.557Z,19.09
2023-02-16T08:03:44.326Z,20.23
2023-02-16T08:06:11.119Z,20.51
2023-02-16T08:08:37.950Z,20.87
2023-02-16T08:11:05.168Z,21.08
2023-02-16T08:13:32.064Z,21.16
2023-02-16T08:15:59.095Z,21.35
2023-02-16T08:18:25.903Z,21.42
2023-02-16T08:21:03.701Z,21.42
2023-02-16T08:23:31.384Z,21.55
2023-02-16T08:25:58.848Z,21.74
2023-02-16T08:28:28.419Z,21.67
2023-02-16T08:30:55.305Z,21.85
2023-02-16T08:33:22.060Z,21.85
2023-02-16T08:35:49.254Z,21.96
2023-02-16T08:38:17.361Z,21.51
2023-02-16T08:40:44.147Z,18.32
2023-02-16T08:43:10.885Z,17.43
2023-02-16T08:45:37.680Z,19.09
2023-02-16T08:48:04.434Z,20.03
2023-02-16T08:50:32.618Z,20.54
2023-02-16T08:52:59.382Z,20.83
2023-02-16T08:55:26.107Z,21.02
2023-02-16T08:57:52.852Z,21.24
2023-02-16T09:00:34.993Z,21.36
2023-02-16T09:03:02.065Z,21.44
2023-02-16T09:05:28.809Z,21.56
2023-02-16T09:07:56.059Z,21.62
2023-02-16T09:10:23.368Z,21.89
2023-02-16T09:12:50.109Z,21.76
2023-02-16T09:15:16.898Z,21.90
2023-02-16T09:17:43.650Z,21.90
2023-02-16T09:20:10.389Z,22.07
2023-02-16T09:22:37.893Z,20.81
2023-02-16T09:25:04.646Z,18.03
2023-02-16T09:27:31.464Z,17.24
2023-02-16T09:29:58.720Z,19.43
2023-02-16T09:32:27.712Z,20.18
2023-02-16T09:34:55.193Z,20.70
2023-02-16T09:37:21.956Z,20.75
2023-02-16T09:39:48.708Z,20.95
2023-02-16T09:42:15.525Z,21.11
2023-02-16T09:44:42.286Z,21.28
2023-02-16T09:47:09.328Z,21.36
2023-02-16T09:49:36.835Z,21.53
2023-02-16T09:52:03.661Z,21.64
2023-02-16T09:54:30.656Z,21.68
2023-02-16T09:56:57.406Z,21.67
2023-02-16T09:59:24.528Z,21.72
2023-02-16T10:01:51.355Z,21.84
2023-02-16T10:04:18.579Z,21.88
2023-02-16T10:06:45.368Z,22.01
2023-02-16T10:09:12.480Z,20.00
2023-02-16T10:11:41.637Z,17.84
2023-02-16T10:14:08.556Z,18.28
2023-02-16T10:16:35.362Z,19.91
2023-02-16T10:19:02.223Z,20.43
2023-02-16T10:21:29.592Z,20.77
2023-02-16T10:23:56.538Z,21.12
2023-02-16T10:26:24.391Z,21.07
2023-02-16T10:28:51.224Z,21.28
2023-02-16T10:31:18.011Z,21.45
2023-02-16T10:33:44.806Z,21.43
2023-02-16T10:36:11.821Z,21.55
2023-02-16T10:38:38.576Z,21.74
2023-02-16T10:41:05.599Z,21.81
2023-02-16T10:43:32.533Z,21.80
2023-02-16T10:45:59.555Z,21.88
2023-02-16T10:48:27.117Z,22.03
2023-02-16T10:50:53.862Z,20.00
2023-02-16T10:53:20.630Z,17.72
2023-02-16T10:55:47.391Z,17.62
2023-02-16T10:58:14.146Z,19.61
2023-02-16T11:00:41.588Z,20.37
2023-02-16T11:03:10.737Z,20.54
2023-02-16T11:05:38.074Z,20.84
2023-02-16T11:08:04.817Z,21.06
2023-02-16T11:10:31.541Z,21.22
2023-02-16T11:12:58.426Z,21.49
2023-02-16T11:15:25.896Z,21.47
2023-02-16T11:17:52.664Z,21.53
2023-02-16T11:20:19.695Z,21.59
2023-02-16T11:22:47.150Z,21.76
2023-02-16T11:25:13.974Z,21.87
2023-02-16T11:27:40.761Z,21.87
2023-02-16T11:30:07.505Z,21.95
2023-02-16T11:32:34.294Z,21.03
2023-02-16T11:35:01.118Z,18.20
2023-02-16T11:37:28.210Z,18.48
2023-02-16T11:39:54.984Z,20.05
2023-02-16T11:42:21.779Z,20.67
2023-02-16T11:44:48.524Z,20.85
2023-02-16T11:47:15.309Z,21.20
2023-02-16T11:49:42.059Z,21.32
2023-02-16T11:52:08.815Z,21.43
2023-02-16T11:54:35.706Z,21.55
2023-02-16T11:57:02.649Z,21.55
2023-02-16T11:59:30.247Z,21.67
2023-02-16T12:01:57.035Z,21.79
2023-02-16T12:04:23.788Z,21.93
2023-02-16T12:06:50.696Z,22.00
2023-02-16T12:09:17.437Z,19.94
2023-02-16T12:11:44.231Z,19.31
2023-02-16T12:14:11.301Z,19.66
2023-02-16T12:16:38.144Z,20.64
2023-02-16T12:19:04.930Z,21.15
2023-02-16T12:21:31.915Z,21.27
2023-02-16T12:23:58.674Z,21.47
2023-02-16T12:26:26.534Z,21.63
2023-02-16T12:28:53.290Z,21.71
2023-02-16T12:31:22.033Z,21.74
2023-02-16T12:33:49.577Z,21.84
2023-02-16T12:36:16.635Z,21.97
2023-02-16T12:38:43.360Z,21.99
2023-02-16T12:41:10.353Z,20.39
2023-02-16T12:43:37.132Z,19.21
2023-02-16T12:46:04.350Z,19.40
2023-02-16T12:48:31.307Z,20.50
2023-02-16T12:50:58.027Z,20.88
2023-02-16T12:53:27.454Z,21.23
2023-02-16T12:55:55.286Z,21.35
2023-02-16T12:58:22.264Z,21.44
2023-02-16T13:00:49.394Z,21.54
2023-02-16T13:03:16.314Z,21.67
2023-02-16T13:05:43.120Z,21.85
2023-02-16T13:08:10.440Z,22.04
2023-02-16T13:10:37.256Z,22.00
2023-02-16T13:13:03.999Z,20.09
2023-02-16T13:15:30.751Z,18.26
2023-02-16T13:17:57.629Z,17.91
2023-02-16T13:20:24.382Z,19.97
2023-02-16T13:22:51.116Z,20.42
2023-02-16T13:25:20.975Z,20.83
2023-02-16T13:27:48.727Z,21.09
2023-02-16T13:30:15.768Z,21.31
2023-02-16T13:32:42.750Z,21.31
2023-02-16T13:35:09.482Z,21.49
2023-02-16T13:37:36.739Z,21.60
2023-02-16T13:40:04.650Z,21.74
2023-02-16T13:42:32.211Z,21.71
2023-02-16T13:44:58.976Z,21.98
2023-02-16T13:47:25.981Z,22.00
2023-02-16T13:49:52.715Z,22.04
2023-02-16T13:52:19.454Z,19.51
2023-02-16T13:54:46.216Z,18.07
2023-02-16T13:57:12.997Z,18.62
2023-02-16T13:59:39.789Z,20.17
2023-02-16T14:02:07.034Z,20.55
2023-02-16T14:04:33.807Z,21.01
2023-02-16T14:07:01.103Z,21.15
2023-02-16T14:09:27.843Z,21.23
2023-02-16T14:11:54.609Z,21.47
2023-02-16T14:14:21.376Z,21.51
2023-02-16T14:16:48.156Z,21.60
2023-02-16T14:19:14.888Z,21.68
2023-02-16T14:21:41.634Z,21.77
2023-02-16T14:24:08.473Z,21.82
2023-02-16T14:26:35.254Z,21.93
2023-02-16T14:29:02.079Z,21.09
2023-02-16T14:31:28.916Z,18.61
2023-02-16T14:33:56.212Z,17.49
2023-02-16T14:36:26.166Z,19.46
2023-02-16T14:38:52.949Z,20.35
2023-02-16T14:41:19.693Z,20.83
2023-02-16T14:43:46.456Z,21.19
2023-02-16T14:46:13.579Z,21.23
2023-02-16T14:48:40.308Z,21.34
2023-02-16T14:51:09.626Z,21.52
2023-02-16T14:53:37.195Z,21.65
2023-02-16T14:56:04.180Z,21.75
2023-02-16T14:58:31.260Z,21.87
2023-02-16T15:00:58.130Z,21.83
2023-02-16T15:03:25.002Z,21.87
2023-02-16T15:05:51.762Z,21.91
2023-02-16T15:08:18.543Z,19.11
2023-02-16T15:10:46.360Z,17.82
2023-02-16T15:13:14.612Z,18.82
2023-02-16T15:15:42.532Z,20.16
2023-02-16T15:18:09.316Z,20.68
2023-02-16T15:20:36.433Z,20.99
2023-02-16T15:23:03.296Z,21.15
2023-02-16T15:25:30.249Z,21.39
2023-02-16T15:27:59.019Z,21.32
2023-02-16T15:30:25.828Z,21.60
2023-02-16T15:32:52.602Z,21.57
2023-02-16T15:35:19.376Z,21.86
2023-02-16T15:37:46.169Z,21.79
2023-02-16T15:40:24.995Z,21.87
2023-02-16T15:42:52.921Z,21.92
2023-02-16T15:45:19.706Z,20.51
2023-02-16T15:47:46.894Z,18.35
2023-02-16T15:50:14.166Z,17.43
2023-02-16T15:52:40.896Z,19.57
2023-02-16T15:55:09.051Z,20.27
2023-02-16T15:57:38.911Z,20.67
2023-02-16T16:00:05.923Z,20.96
2023-02-16T16:02:32.669Z,21.16
2023-02-16T16:04:59.672Z,21.45
2023-02-16T16:07:26.604Z,21.43
2023-02-16T16:09:53.343Z,21.55
2023-02-16T16:12:20.589Z,21.57
2023-02-16T16:14:47.316Z,21.68
2023-02-16T16:17:15.457Z,21.83
2023-02-16T16:19:42.216Z,21.94
2023-02-16T16:22:08.948Z,22.01
2023-02-16T16:24:38.699Z,20.72
2023-02-16T16:27:05.540Z,18.13
2023-02-16T16:29:32.277Z,17.30
2023-02-16T16:31:59.136Z,19.45
2023-02-16T16:34:25.956Z,20.35
2023-02-16T16:36:52.700Z,20.67
2023-02-16T16:39:19.498Z,20.96
2023-02-16T16:41:46.295Z,21.11
2023-02-16T16:44:13.026Z,21.32
2023-02-16T16:46:39.880Z,21.47
2023-02-16T16:49:08.004Z,21.48
2023-02-16T16:51:34.768Z,21.61
2023-02-16T16:54:01.507Z,21.72
2023-02-16T16:56:28.249Z,21.79
2023-02-16T16:58:56.651Z,21.93
2023-02-16T17:01:23.386Z,21.97
2023-02-16T17:03:50.217Z,21.80
2023-02-16T17:06:17.672Z,18.55
2023-02-16T17:08:44.426Z,17.27
2023-02-16T17:11:12.985Z,19.08
2023-02-16T17:13:39.752Z,20.16
2023-02-16T17:16:06.887Z,20.52
2023-02-16T17:18:33.875Z,20.67
2023-02-16T17:21:00.634Z,20.92
2023-02-16T17:23:27.439Z,21.21
2023-02-16T17:25:54.245Z,21.33
2023-02-16T17:28:21.140Z,21.50
2023-02-16T17:30:47.871Z,21.64
2023-02-16T17:33:14.626Z,21.66
2023-02-16T17:35:41.357Z,21.73
2023-02-16T17:38:08.197Z,21.93
2023-02-16T17:40:35.013Z,21.95
2023-02-16T17:43:01.838Z,21.98
2023-02-16T17:45:28.601Z,20.55
2023-02-16T17:47:55.352Z,17.99
2023-02-16T17:50:22.122Z,17.43
2023-02-16T17:52:48.956Z,19.38
2023-02-16T17:55:15.708Z,20.22
2023-02-16T17:57:42.508Z,20.76
2023-02-16T18:00:09.288Z,20.90
2023-02-16T18:02:36.166Z,21.10
2023-02-16T18:05:03.012Z,21.18
2023-02-16T18:07:29.799Z,21.36
2023-02-16T18:09:56.633Z,21.45
2023-02-16T18:12:23.439Z,21.65
2023-02-16T18:14:50.163Z,21.75
2023-02-16T18:17:16.931Z,21.74
2023-02-16T18:19:43.673Z,21.92
2023-02-16T18:22:10.403Z,21.93
2023-02-16T18:24:37.193Z,21.92
2023-02-16T18:27:03.935Z,21.76
2023-02-16T18:29:30.753Z,18.58
2023-02-16T18:31:57.799Z,17.29
2023-02-16T18:34:26.049Z,18.87
2023-02-16T18:36:53.086Z,20.07
2023-02-16T18:39:19.845Z,20.50
2023-02-16T18:41:46.624Z,20.91
2023-02-16T18:44:13.360Z,21.10
2023-02-16T18:46:40.134Z,21.23
2023-02-16T18:49:06.974Z,21.25
2023-02-16T18:51:33.749Z,21.45
2023-02-16T18:54:00.593Z,21.45
2023-02-16T18:56:27.632Z,21.59
2023-02-16T18:58:54.375Z,21.61
2023-02-16T19:01:21.197Z,21.77
2023-02-16T19:03:47.994Z,21.84
2023-02-16T19:06:14.738Z,21.98
2023-02-16T19:08:41.599Z,21.95
2023-02-16T19:11:08.367Z,21.30
2023-02-16T19:13:35.117Z,18.51
2023-02-16T19:16:01.990Z,17.31
2023-02-16T19:18:29.133Z,18.91
2023-02-16T19:20:55.886Z,20.11
2023-02-16T19:23:22.646Z,20.64
2023-02-16T19:25:49.370Z,20.91
2023-02-16T19:28:16.104Z,21.08
2023-02-16T19:30:42.888Z,21.34
2023-02-16T19:33:09.771Z,21.40
2023-02-16T19:35:36.555Z,21.50
2023-02-16T19:38:03.430Z,21.54
2023-02-16T19:40:30.244Z,21.62
2023-02-16T19:42:57.037Z,21.68
2023-02-16T19:45:24.706Z,21.87
2023-02-16T19:47:52.836Z,21.95
2023-02-16T19:50:19.610Z,21.97
2023-02-16T19:52:46.359Z,19.91
2023-02-16T19:55:13.115Z,17.72
2023-02-16T19:57:39.860Z,18.61
2023-02-16T20:00:11.166Z,20.07
2023-02-16T20:02:38.002Z,20.68
2023-02-16T20:05:06.533Z,20.79
2023-02-16T20:07:33.286Z,21.12
2023-02-16T20:10:00.029Z,21.21
2023-02-16T20:12:28.456Z,21.33
2023-02-16T20:14:55.204Z,21.61
2023-02-16T20:17:21.959Z,21.59
2023-02-16T20:19:48.718Z,21.69
2023-02-16T20:22:16.748Z,21.84
2023-02-16T20:24:44.787Z,21.92
2023-02-16T20:27:11.536Z,21.96
2023-02-16T20:29:38.295Z,21.87
2023-02-16T20:32:05.198Z,18.63
2023-02-16T20:34:32.002Z,18.15
2023-02-16T20:36:58.795Z,19.48
2023-02-16T20:39:25.549Z,20.47
2023-02-16T20:41:52.290Z,20.96
2023-02-16T20:44:19.043Z,21.10
2023-02-16T20:46:45.836Z,21.24
2023-02-16T20:49:13.391Z,21.44
2023-02-16T20:51:41.104Z,21.64
2023-02-16T20:54:07.869Z,21.73
2023-02-16T20:56:34.675Z,21.79
2023-02-16T20:59:01.531Z,21.96
2023-02-16T21:01:28.330Z,21.87
2023-02-16T21:03:55.142Z,21.98
2023-02-16T21:06:21.909Z,21.97
2023-02-16T21:08:48.685Z,18.72
2023-02-16T21:11:15.448Z,18.48
2023-02-16T21:13:42.191Z,19.92
2023-02-16T21:16:08.977Z,20.60
2023-02-16T21:18:35.806Z,20.97
2023-02-16T21:21:02.551Z,21.33
2023-02-16T21:23:29.333Z,21.32
2023-02-16T21:25:56.069Z,21.45
2023-02-16T21:28:22.829Z,21.55
2023-02-16T21:30:49.589Z,21.70
2023-02-16T21:33:16.343Z,21.84
2023-02-16T21:35:43.084Z,21.89
2023-02-16T21:38:09.837Z,21.97
2023-02-16T21:40:55.149Z,21.34
2023-02-16T21:43:21.866Z,17.98
2023-02-16T21:45:48.674Z,17.87
2023-02-16T21:48:34.264Z,19.80
2023-02-16T21:51:00.999Z,20.42
2023-02-16T21:53:27.714Z,20.71
2023-02-16T21:56:13.135Z,21.10
2023-02-16T21:58:39.895Z,21.34
2023-02-16T22:01:06.742Z,21.37
2023-02-16T22:03:33.560Z,21.42
2023-02-16T22:06:00.291Z,21.62
2023-02-16T22:08:27.170Z,21.64
2023-02-16T22:10:54.172Z,21.77
2023-02-16T22:13:21.055Z,21.95
2023-02-16T22:15:48.910Z,21.97
2023-02-16T22:18:15.661Z,18.90
2023-02-16T22:20:42.390Z,18.68
2023-02-16T22:23:09.167Z,19.71
2023-02-16T22:25:35.912Z,20.03
2023-02-16T22:28:02.663Z,20.63
2023-02-16T22:30:29.433Z,20.95
2023-02-16T22:32:56.228Z,21.19
2023-02-16T22:35:23.041Z,21.36
2023-02-16T22:37:49.760Z,21.40
2023-02-16T22:40:16.526Z,21.58
2023-02-16T22:42:43.277Z,21.69
2023-02-16T22:45:10.016Z,21.75
2023-02-16T22:47:36.767Z,21.83
2023-02-16T22:50:03.658Z,21.86
2023-02-16T22:52:30.527Z,22.05
2023-02-16T22:54:58.289Z,21.17
2023-02-16T22:57:25.091Z,18.80
2023-02-16T22:59:51.871Z,19.01
2023-02-16T23:02:18.651Z,20.15
2023-02-16T23:04:45.418Z,20.69
2023-02-16T23:07:12.146Z,20.96
2023-02-16T23:09:38.943Z,21.24
2023-02-16T23:12:06.332Z,21.39
2023-02-16T23:14:33.082Z,21.65
2023-02-16T23:16:59.872Z,21.60
2023-02-16T23:19:26.679Z,21.81
2023-02-16T23:21:53.571Z,21.90
2023-02-16T23:24:20.327Z,21.94
2023-02-16T23:26:47.080Z,21.95
2023-02-16T23:29:13.825Z,19.90
2023-02-16T23:31:40.632Z,17.83
2023-02-16T23:34:07.417Z,18.03
2023-02-16T23:36:34.190Z,20.00
2023-02-16T23:39:00.967Z,20.32
2023-02-16T23:41:27.805Z,20.74
2023-02-16T23:43:56.250Z,20.99
2023-02-16T23:46:23.075Z,21.08
2023-02-16T23:48:49.903Z,21.29
2023-02-16T23:51:16.728Z,21.43
2023-02-16T23:53:43.491Z,21.62
2023-02-16T23:56:10.274Z,21.62
2023-02-16T23:58:37.014Z,21.62
